Time,TemperatureF,DewpointF,PressureIn,WindDirection,WindDirectionDegrees,WindSpeedMPH,WindSpeedGustMPH,Humidity,HourlyPrecipIn,Conditions,Clouds,dailyrainin,SoftwareType,DateUTC
2013-02-20 00:00:00,23.6,14.6,29.94,WSW,256,23.0,23.0,68,0.00,RA,,0.00,WeatherDisplay:10.37,2013-02-20 05:00:00,
2013-02-20 00:05:00,23.6,14.6,29.94,West,275,26.5,26.5,68,0.00,RA,,0.00,WeatherDisplay:10.37,2013-02-20 05:05:00,
2013-02-20 00:10:00,23.6,14.6,29.94,West,276,16.1,16.1,68,0.00,CLR,,0.00,WeatherDisplay:10.37,2013-02-20 05:10:00,
2013-02-20 00:15:00,23.6,14.6,29.94,West,266,19.6,19.6,68,0.00,CLR,,0.00,WeatherDisplay:10.37,2013-02-20 05:15:00,
2013-02-20 00:20:00,23.6,14.6,29.95,West,261,15.0,15.0,68,0.00,CLR,,0.00,WeatherDisplay:10.37,2013-02-20 05:20:00,
2013-02-20 00:25:00,23.4,14.7,29.95,NW,304,8.1,8.1,69,0.00,CLR,,0.00,WeatherDisplay:10.37,2013-02-20 05:25:00,
2013-02-20 00:30:00,23.1,14.4,29.95,WSW,257,16.0,16.0,69,0.00,CLR,,0.00,WeatherDisplay:10.37,2013-02-20 05:30:00,
2013-02-20 00:35:00,22.9,14.6,29.95,WNW,289,15.0,15.0,70,0.00,CLR,,0.00,WeatherDisplay:10.37,2013-02-20 05:35:00,
2013-02-20 00:40:00,22.8,14.5,29.95,SW,223,10.4,10.4,70,0.00,CLR,,0.00,WeatherDisplay:10.37,2013-02-20 05:40:00,
2013-02-20 00:45:00,22.8,14.8,29.95,WSW,240,8.0,8.0,71,0.00,CLR,,0.00,WeatherDisplay:10.37,2013-02-20 05:45:00,
2013-02-20 00:50:00,22.8,14.8,29.95,WNW,295,12.0,12.0,71,0.00,CLR,,0.00,WeatherDisplay:10.37,2013-02-20 05:50:00,
2013-02-20 00:55:00,22.7,15.0,29.95,West,272,21.0,21.0,72,0.00,CLR,,0.00,WeatherDisplay:10.37,2013-02-20 05:55:00,
2013-02-20 01:00:00,22.7,15.0,29.95,NNW,329,8.1,8.1,72,0.00,CLR,,0.00,WeatherDisplay:10.37,2013-02-20 06:00:00,
2013-02-20 01:05:00,22.4,14.7,29.96,WNW,295,10.0,10.0,72,0.00,CLR,,0.00,WeatherDisplay:10.37,2013-02-20 06:05:00,
2013-02-20 01:10:00,22.1,14.8,29.96,SW,214,11.5,11.5,73,0.00,CLR,,0.00,WeatherDisplay:10.37,2013-02-20 06:10:00,
2013-02-20 01:15:00,21.9,14.9,29.96,West,280,10.4,10.4,74,0.00,CLR,,0.00,WeatherDisplay:10.37,2013-02-20 06:15:00,
2013-02-20 01:20:00,21.8,15.1,29.97,WSW,244,15.0,15.0,75,0.00,CLR,,0.00,WeatherDisplay:10.37,2013-02-20 06:20:00,
2013-02-20 01:25:00,21.7,15.3,29.97,West,276,10.4,10.4,76,0.00,CLR,,0.00,WeatherDisplay:10.37,2013-02-20 06:25:00,
2013-02-20 01:30:00,21.6,15.2,29.97,West,263,27.0,27.0,76,0.00,CLR,,0.00,WeatherDisplay:10.37,2013-02-20 06:30:00,
2013-02-20 01:35:00,21.5,14.8,29.97,West,279,20.7,20.7,75,0.00,CLR,,0.00,WeatherDisplay:10.37,2013-02-20 06:35:00,
2013-02-20 01:40:00,21.3,14.9,29.97,West,267,16.0,16.0,76,0.00,CLR,,0.00,WeatherDisplay:10.37,2013-02-20 06:40:00,
2013-02-20 01:45:00,21.2,14.8,29.97,West,268,14.0,14.0,76,0.00,CLR,,0.00,WeatherDisplay:10.37,2013-02-20 06:45:00,
2013-02-20 01:50:00,21.2,14.8,29.97,West,274,18.0,18.0,76,0.00,CLR,,0.00,WeatherDisplay:10.37,2013-02-20 06:50:00,
2013-02-20 01:55:00,21.1,14.7,29.97,West,277,19.6,19.6,76,0.00,CLR,,0.00,WeatherDisplay:10.37,2013-02-20 06:55:00,
2013-02-20 02:00:00,21.1,14.7,29.97,NW,308,19.6,19.6,76,0.00,CLR,,0.00,WeatherDisplay:10.37,2013-02-20 07:00:00,
2013-02-20 02:05:00,21.2,14.8,29.97,West,263,20.0,20.0,76,0.00,CLR,,0.00,WeatherDisplay:10.37,2013-02-20 07:05:00,
2013-02-20 02:10:00,21.4,14.7,29.97,WSW,240,19.6,19.6,75,0.00,CLR,,0.00,WeatherDisplay:10.37,2013-02-20 07:10:00,
2013-02-20 02:15:00,21.5,14.5,29.97,WSW,252,13.8,13.8,74,0.00,CLR,,0.00,WeatherDisplay:10.37,2013-02-20 07:15:00,
2013-02-20 02:20:00,21.5,14.5,29.98,North,355,7.0,7.0,74,0.00,CLR,,0.00,WeatherDisplay:10.37,2013-02-20 07:20:00,
2013-02-20 02:25:00,20.7,13.7,29.98,West,273,22.0,22.0,74,0.00,CLR,,0.00,WeatherDisplay:10.37,2013-02-20 07:25:00,
2013-02-20 02:30:00,20.1,13.7,29.98,NW,315,20.0,20.0,76,0.00,CLR,,0.00,WeatherDisplay:10.37,2013-02-20 07:30:00,
2013-02-20 02:35:00,19.8,13.5,29.98,West,261,16.1,16.1,76,0.00,CLR,,0.00,WeatherDisplay:10.37,2013-02-20 07:35:00,
2013-02-20 02:40:00,19.8,13.5,29.98,West,279,28.0,28.0,76,0.00,CLR,,0.00,WeatherDisplay:10.37,2013-02-20 07:40:00,
2013-02-20 02:45:00,19.7,13.1,29.98,WNW,282,18.4,18.4,75,0.00,CLR,,0.00,WeatherDisplay:10.37,2013-02-20 07:45:00,
2013-02-20 02:50:00,19.8,12.8,29.98,West,271,22.0,22.0,74,0.00,CLR,,0.00,WeatherDisplay:10.37,2013-02-20 07:50:00,
2013-02-20 02:55:00,19.8,12.5,29.98,West,260,19.6,19.6,73,0.00,CLR,,0.00,WeatherDisplay:10.37,2013-02-20 07:55:00,
2013-02-20 03:00:00,19.7,11.8,29.98,West,279,28.0,28.0,71,0.00,CLR,,0.00,WeatherDisplay:10.37,2013-02-20 08:00:00,
2013-02-20 03:05:00,19.7,11.2,29.98,West,278,29.0,29.0,69,0.00,CLR,,0.00,WeatherDisplay:10.37,2013-02-20 08:05:00,
2013-02-20 03:10:00,19.6,10.7,29.98,West,265,25.3,25.3,68,0.00,CLR,,0.00,WeatherDisplay:10.37,2013-02-20 08:10:00,
2013-02-20 03:15:00,19.5,10.6,29.99,WNW,286,20.7,20.7,68,0.00,CLR,,0.00,WeatherDisplay:10.37,2013-02-20 08:15:00,
2013-02-20 03:20:00,19.4,10.2,29.99,West,263,30.0,30.0,67,0.00,CLR,,0.00,WeatherDisplay:10.37,2013-02-20 08:20:00,
2013-02-20 03:25:00,19.4,9.9,29.99,WNW,299,14.0,14.0,66,0.00,CLR,,0.00,WeatherDisplay:10.37,2013-02-20 08:25:00,
2013-02-20 03:30:00,19.3,10.1,30.00,West,279,25.3,25.3,67,0.00,CLR,,0.00,WeatherDisplay:10.37,2013-02-20 08:30:00,
2013-02-20 03:35:00,19.3,9.8,30.00,WNW,292,18.4,18.4,66,0.00,CLR,,0.00,WeatherDisplay:10.37,2013-02-20 08:35:00,
2013-02-20 03:40:00,19.2,9.7,30.00,West,281,16.1,16.1,66,0.00,CLR,,0.00,WeatherDisplay:10.37,2013-02-20 08:40:00,
2013-02-20 03:45:00,19.2,9.7,30.00,West,272,12.0,12.0,66,0.00,CLR,,0.00,WeatherDisplay:10.37,2013-02-20 08:45:00,
2013-02-20 03:50:00,19.1,9.6,30.00,West,268,11.5,11.5,66,0.00,CLR,,0.00,WeatherDisplay:10.37,2013-02-20 08:50:00,
2013-02-20 03:55:00,19.1,9.6,30.00,NW,314,13.0,13.0,66,0.00,CLR,,0.00,WeatherDisplay:10.37,2013-02-20 08:55:00,
2013-02-20 04:00:00,19.0,9.5,30.00,WNW,287,12.7,12.7,66,0.00,CLR,,0.00,WeatherDisplay:10.37,2013-02-20 09:00:00,
2013-02-20 04:05:00,19.0,9.5,30.00,West,274,14.0,14.0,66,0.00,CLR,,0.00,WeatherDisplay:10.37,2013-02-20 09:05:00,
2013-02-20 04:10:00,19.0,9.8,30.00,WNW,300,9.0,9.0,67,0.00,CLR,,0.00,WeatherDisplay:10.37,2013-02-20 09:10:00,
2013-02-20 04:15:00,18.9,9.4,30.00,West,280,15.0,15.0,66,0.00,CLR,,0.00,WeatherDisplay:10.37,2013-02-20 09:15:00,
2013-02-20 04:20:00,18.9,9.7,30.00,West,269,11.5,11.5,67,0.00,CLR,,0.00,WeatherDisplay:10.37,2013-02-20 09:20:00,
2013-02-20 04:25:00,18.9,9.7,30.00,West,264,14.0,14.0,67,0.00,CLR,,0.00,WeatherDisplay:10.37,2013-02-20 09:25:00,
2013-02-20 04:30:00,18.9,9.7,30.01,West,273,13.0,13.0,67,0.00,CLR,,0.00,WeatherDisplay:10.37,2013-02-20 09:30:00,
2013-02-20 04:35:00,18.9,9.7,30.01,West,271,8.0,8.0,67,0.00,CLR,,0.00,WeatherDisplay:10.37,2013-02-20 09:35:00,
2013-02-20 04:40:00,18.9,10.1,30.01,West,276,11.5,11.5,68,0.00,CLR,,0.00,WeatherDisplay:10.37,2013-02-20 09:40:00,
2013-02-20 04:45:00,18.9,10.1,30.01,West,277,18.4,18.4,68,0.00,CLR,,0.00,WeatherDisplay:10.37,2013-02-20 09:45:00,
2013-02-20 04:50:00,19.0,10.2,30.01,West,277,15.0,15.0,68,0.00,CLR,,0.00,WeatherDisplay:10.37,2013-02-20 09:50:00,
2013-02-20 04:55:00,19.1,10.3,30.01,WSW,252,12.0,12.0,68,0.00,CLR,,0.00,WeatherDisplay:10.37,2013-02-20 09:55:00,
2013-02-20 05:00:00,19.1,10.3,30.02,NW,310,19.6,19.6,68,0.00,CLR,,0.00,WeatherDisplay:10.37,2013-02-20 10:00:00,
2013-02-20 05:05:00,19.2,10.4,30.02,West,263,20.0,20.0,68,0.00,CLR,,0.00,WeatherDisplay:10.37,2013-02-20 10:05:00,
2013-02-20 05:10:00,19.3,10.5,30.02,SW,235,22.0,22.0,68,0.00,CLR,,0.00,WeatherDisplay:10.37,2013-02-20 10:10:00,
2013-02-20 05:15:00,19.3,10.5,30.02,WSW,253,20.7,20.7,68,0.00,CLR,,0.00,WeatherDisplay:10.37,2013-02-20 10:15:00,
2013-02-20 05:20:00,19.3,10.5,30.02,West,263,16.1,16.1,68,0.00,CLR,,0.00,WeatherDisplay:10.37,2013-02-20 10:20:00,
2013-02-20 05:25:00,19.2,10.4,30.02,West,276,27.0,27.0,68,0.00,CLR,,0.00,WeatherDisplay:10.37,2013-02-20 10:25:00,
2013-02-20 05:30:00,19.1,9.9,30.02,West,273,21.0,21.0,67,0.00,CLR,,0.00,WeatherDisplay:10.37,2013-02-20 10:30:00,
2013-02-20 05:35:00,19.0,9.8,30.03,NW,307,5.0,5.0,67,0.00,CLR,,0.00,WeatherDisplay:10.37,2013-02-20 10:35:00,
2013-02-20 05:40:00,18.8,10.0,30.03,WNW,292,10.4,10.4,68,0.00,CLR,,0.00,WeatherDisplay:10.37,2013-02-20 10:40:00,
2013-02-20 05:45:00,18.7,10.2,30.03,WNW,291,14.0,14.0,69,0.00,CLR,,0.00,WeatherDisplay:10.37,2013-02-20 10:45:00,
2013-02-20 05:50:00,18.4,10.2,30.04,SW,229,12.0,12.0,70,0.00,CLR,,0.00,WeatherDisplay:10.37,2013-02-20 10:50:00,
2013-02-20 05:55:00,18.2,10.1,30.04,West,267,16.1,16.1,70,0.00,CLR,,0.00,WeatherDisplay:10.37,2013-02-20 10:55:00,
2013-02-20 06:00:00,18.2,10.1,30.04,West,263,23.0,23.0,70,0.00,CLR,,0.00,WeatherDisplay:10.37,2013-02-20 11:00:00,
2013-02-20 06:05:00,18.3,9.8,30.04,West,280,32.0,32.0,69,0.00,CLR,,0.00,WeatherDisplay:10.37,2013-02-20 11:05:00,
2013-02-20 06:10:00,18.4,9.6,30.04,West,261,32.2,32.2,68,0.00,CLR,,0.00,WeatherDisplay:10.37,2013-02-20 11:10:00,
2013-02-20 06:15:00,18.5,9.4,30.05,West,264,21.0,21.0,67,0.00,CLR,,0.00,WeatherDisplay:10.37,2013-02-20 11:15:00,
2013-02-20 06:20:00,18.4,9.3,30.05,West,281,31.1,31.1,67,0.00,CLR,,0.00,WeatherDisplay:10.37,2013-02-20 11:20:00,
2013-02-20 06:25:00,18.4,8.9,30.05,West,267,21.9,21.9,66,0.00,CLR,,0.00,WeatherDisplay:10.37,2013-02-20 11:25:00,
2013-02-20 06:30:00,18.4,8.9,30.05,West,270,28.0,28.0,66,0.00,CLR,,0.00,WeatherDisplay:10.37,2013-02-20 11:30:00,
2013-02-20 06:35:00,18.4,8.9,30.05,WSW,258,27.6,27.6,66,0.00,CLR,,0.00,WeatherDisplay:10.37,2013-02-20 11:35:00,
2013-02-20 06:40:00,18.4,8.9,30.05,West,281,27.0,27.0,66,0.00,CLR,,0.00,WeatherDisplay:10.37,2013-02-20 11:40:00,
2013-02-20 06:45:00,18.4,8.9,30.05,West,277,23.0,23.0,66,0.00,CLR,,0.00,WeatherDisplay:10.37,2013-02-20 11:45:00,
2013-02-20 06:50:00,18.4,8.9,30.05,WSW,238,23.0,23.0,66,0.00,CLR,,0.00,WeatherDisplay:10.37,2013-02-20 11:50:00,
2013-02-20 06:55:00,18.3,8.8,30.06,WNW,290,20.0,20.0,66,0.00,CLR,,0.00,WeatherDisplay:10.37,2013-02-20 11:55:00,
2013-02-20 07:00:00,18.3,8.8,30.06,NW,315,13.0,13.0,66,0.00,CLR,,0.00,WeatherDisplay:10.37,2013-02-20 12:00:00,
2013-02-20 07:05:00,18.3,9.2,30.06,WSW,254,17.0,17.0,67,0.00,CLR,,0.00,WeatherDisplay:10.37,2013-02-20 12:05:00,
2013-02-20 07:10:00,18.3,8.8,30.06,West,259,19.0,19.0,66,0.00,CLR,,0.00,WeatherDisplay:10.37,2013-02-20 12:10:00,
2013-02-20 07:15:00,18.4,9.3,30.06,West,276,23.0,23.0,67,0.00,CLR,,0.00,WeatherDisplay:10.37,2013-02-20 12:15:00,
2013-02-20 07:20:00,18.3,9.2,30.07,WNW,297,16.1,16.1,67,0.00,CLR,,0.00,WeatherDisplay:10.37,2013-02-20 12:20:00,
2013-02-20 07:25:00,18.3,8.8,30.07,WSW,237,15.0,15.0,66,0.00,CLR,,0.00,WeatherDisplay:10.37,2013-02-20 12:25:00,
2013-02-20 07:30:00,18.3,8.8,30.07,West,275,22.0,22.0,66,0.00,CLR,,0.00,WeatherDisplay:10.37,2013-02-20 12:30:00,
2013-02-20 07:35:00,18.3,9.2,30.07,WNW,294,13.0,13.0,67,0.00,CLR,,0.00,WeatherDisplay:10.37,2013-02-20 12:35:00,
2013-02-20 07:40:00,18.2,8.7,30.07,West,277,26.5,26.5,66,0.00,CLR,,0.00,WeatherDisplay:10.37,2013-02-20 12:40:00,
2013-02-20 07:45:00,18.3,8.8,30.07,West,270,18.4,18.4,66,0.00,CLR,,0.00,WeatherDisplay:10.37,2013-02-20 12:45:00,
2013-02-20 07:50:00,18.3,9.2,30.07,West,269,15.0,15.0,67,0.00,CLR,,0.00,WeatherDisplay:10.37,2013-02-20 12:50:00,
2013-02-20 07:55:00,18.3,9.2,30.08,West,267,18.0,18.0,67,0.00,CLR,,0.00,WeatherDisplay:10.37,2013-02-20 12:55:00,
2013-02-20 08:00:00,18.2,9.1,30.08,West,265,19.6,19.6,67,0.00,CLR,,0.00,WeatherDisplay:10.37,2013-02-20 13:00:00,
2013-02-20 08:05:00,18.2,9.4,30.08,West,259,19.6,19.6,68,0.00,CLR,,0.00,WeatherDisplay:10.37,2013-02-20 13:05:00,
2013-02-20 08:10:00,18.2,9.4,30.08,West,271,18.4,18.4,68,0.00,CLR,,0.00,WeatherDisplay:10.37,2013-02-20 13:10:00,
2013-02-20 08:15:00,18.2,9.1,30.08,WNW,286,13.0,13.0,67,0.00,CLR,,0.00,WeatherDisplay:10.37,2013-02-20 13:15:00,
2013-02-20 08:20:00,18.3,9.2,30.08,West,264,21.0,21.0,67,0.00,CLR,,0.00,WeatherDisplay:10.37,2013-02-20 13:20:00,
2013-02-20 08:25:00,18.2,9.1,30.08,West,268,19.6,19.6,67,0.00,CLR,,0.00,WeatherDisplay:10.37,2013-02-20 13:25:00,
2013-02-20 08:30:00,18.0,9.2,30.09,West,276,24.2,24.2,68,0.00,CLR,,0.00,WeatherDisplay:10.37,2013-02-20 13:30:00,
2013-02-20 08:35:00,18.1,9.6,30.09,NW,317,21.9,21.9,69,0.00,CLR,,0.00,WeatherDisplay:10.37,2013-02-20 13:35:00,
2013-02-20 08:40:00,18.1,9.6,30.09,WSW,248,25.3,25.3,69,0.00,CLR,,0.00,WeatherDisplay:10.37,2013-02-20 13:40:00,
2013-02-20 08:45:00,18.1,9.6,30.09,West,281,19.0,19.0,69,0.00,CLR,,0.00,WeatherDisplay:10.37,2013-02-20 13:45:00,
2013-02-20 08:50:00,18.2,9.7,30.09,West,273,20.0,20.0,69,0.00,CLR,,0.00,WeatherDisplay:10.37,2013-02-20 13:50:00,
2013-02-20 08:55:00,18.1,9.6,30.09,West,280,18.4,18.4,69,0.00,CLR,,0.00,WeatherDisplay:10.37,2013-02-20 13:55:00,
2013-02-20 09:00:00,18.2,9.7,30.09,WNW,291,9.2,9.2,69,0.00,CLR,,0.00,WeatherDisplay:10.37,2013-02-20 14:00:00,
2013-02-20 09:05:00,18.4,9.9,30.10,West,275,25.0,25.0,69,0.00,CLR,,0.00,WeatherDisplay:10.37,2013-02-20 14:05:00,
2013-02-20 09:10:00,18.3,10.1,30.09,WNW,296,14.0,14.0,70,0.00,CLR,,0.00,WeatherDisplay:10.37,2013-02-20 14:10:00,
2013-02-20 09:15:00,18.1,10.0,30.09,West,268,13.0,13.0,70,0.00,CLR,,0.00,WeatherDisplay:10.37,2013-02-20 14:15:00,
2013-02-20 09:20:00,18.2,10.4,30.09,West,271,19.6,19.6,71,0.00,CLR,,0.00,WeatherDisplay:10.37,2013-02-20 14:20:00,
2013-02-20 09:25:00,18.2,10.4,30.09,West,268,17.0,17.0,71,0.00,CLR,,0.00,WeatherDisplay:10.37,2013-02-20 14:25:00,
2013-02-20 09:30:00,18.2,10.4,30.10,West,259,19.0,19.0,71,0.00,CLR,,0.00,WeatherDisplay:10.37,2013-02-20 14:30:00,
2013-02-20 09:35:00,18.3,10.5,30.10,WSW,250,19.6,19.6,71,0.00,CLR,,0.00,WeatherDisplay:10.37,2013-02-20 14:35:00,
2013-02-20 09:40:00,18.2,10.4,30.10,WSW,258,24.2,24.2,71,0.00,CLR,,0.00,WeatherDisplay:10.37,2013-02-20 14:40:00,
2013-02-20 09:45:00,18.1,10.6,30.10,West,267,16.0,16.0,72,0.00,CLR,,0.00,WeatherDisplay:10.37,2013-02-20 14:45:00,
2013-02-20 09:50:00,18.2,10.7,30.10,West,259,18.4,18.4,72,0.00,CLR,,0.00,WeatherDisplay:10.37,2013-02-20 14:50:00,
2013-02-20 09:55:00,18.5,11.0,30.10,West,281,19.0,19.0,72,0.00,CLR,,0.00,WeatherDisplay:10.37,2013-02-20 14:55:00,
2013-02-20 10:00:00,18.5,11.0,30.10,SW,234,24.2,24.2,72,0.00,CLR,,0.00,WeatherDisplay:10.37,2013-02-20 15:00:00,
2013-02-20 10:05:00,18.6,11.1,30.10,West,267,15.0,15.0,72,0.00,CLR,,0.00,WeatherDisplay:10.37,2013-02-20 15:05:00,
2013-02-20 10:10:00,18.7,10.9,30.11,West,267,25.3,25.3,71,0.00,CLR,,0.00,WeatherDisplay:10.37,2013-02-20 15:10:00,
2013-02-20 10:15:00,18.9,10.7,30.11,West,265,15.0,15.0,70,0.00,CLR,,0.00,WeatherDisplay:10.37,2013-02-20 15:15:00,
2013-02-20 10:20:00,19.0,10.5,30.11,WNW,294,26.5,26.5,69,0.00,CLR,,0.00,WeatherDisplay:10.37,2013-02-20 15:20:00,
2013-02-20 10:25:00,18.9,10.1,30.11,West,277,27.0,27.0,68,0.00,CLR,,0.00,WeatherDisplay:10.37,2013-02-20 15:25:00,
2013-02-20 10:30:00,18.8,9.6,30.11,West,275,20.0,20.0,67,0.00,CLR,,0.00,WeatherDisplay:10.37,2013-02-20 15:30:00,
2013-02-20 10:35:00,18.8,10.3,30.11,WSW,252,22.0,22.0,69,0.00,CLR,,0.00,WeatherDisplay:10.37,2013-02-20 15:35:00,
2013-02-20 10:40:00,18.8,10.9,30.11,West,275,19.6,19.6,71,0.00,CLR,,0.00,WeatherDisplay:10.37,2013-02-20 15:40:00,
2013-02-20 10:45:00,18.9,11.0,30.11,West,269,14.0,14.0,71,0.00,CLR,,0.00,WeatherDisplay:10.37,2013-02-20 15:45:00,
2013-02-20 10:50:00,18.9,11.0,30.11,West,263,23.0,23.0,71,0.00,CLR,,0.00,WeatherDisplay:10.37,2013-02-20 15:50:00,
2013-02-20 10:55:00,18.8,10.9,30.12,WNW,302,13.0,13.0,71,0.00,CLR,,0.00,WeatherDisplay:10.37,2013-02-20 15:55:00,
2013-02-20 11:00:00,18.6,10.8,30.12,West,266,11.5,11.5,71,0.00,CLR,,0.00,WeatherDisplay:10.37,2013-02-20 16:00:00,
2013-02-20 11:05:00,18.4,10.9,30.12,WNW,300,9.2,9.2,72,0.00,CLR,,0.00,WeatherDisplay:10.37,2013-02-20 16:05:00,
2013-02-20 11:10:00,18.2,11.3,30.12,NNW,342,10.4,10.4,74,0.00,CLR,,0.00,WeatherDisplay:10.37,2013-02-20 16:10:00,
2013-02-20 11:15:00,18.4,11.5,30.12,WSW,257,12.7,12.7,74,0.00,CLR,,0.00,WeatherDisplay:10.37,2013-02-20 16:15:00,
2013-02-20 11:20:00,18.4,11.2,30.12,West,266,11.5,11.5,73,0.00,CLR,,0.00,WeatherDisplay:10.37,2013-02-20 16:20:00,
2013-02-20 11:25:00,18.6,11.7,30.12,West,270,18.4,18.4,74,0.00,CLR,,0.00,WeatherDisplay:10.37,2013-02-20 16:25:00,
2013-02-20 11:30:00,18.8,11.9,30.12,WSW,257,14.0,14.0,74,0.00,CLR,,0.00,WeatherDisplay:10.37,2013-02-20 16:30:00,
2013-02-20 11:35:00,19.0,12.1,30.12,West,260,22.0,22.0,74,0.00,CLR,,0.00,WeatherDisplay:10.37,2013-02-20 16:35:00,
2013-02-20 11:40:00,18.8,11.6,30.13,WSW,257,22.0,22.0,73,0.00,CLR,,0.00,WeatherDisplay:10.37,2013-02-20 16:40:00,
2013-02-20 11:45:00,19.0,11.8,30.13,West,279,19.6,19.6,73,0.00,CLR,,0.00,WeatherDisplay:10.37,2013-02-20 16:45:00,
2013-02-20 11:50:00,19.2,11.6,30.12,WNW,300,19.6,19.6,72,0.00,CLR,,0.00,WeatherDisplay:10.37,2013-02-20 16:50:00,
2013-02-20 11:55:00,19.6,11.4,30.13,West,268,19.6,19.6,70,0.00,CLR,,0.00,WeatherDisplay:10.37,2013-02-20 16:55:00,
2013-02-20 12:00:00,19.7,10.8,30.13,West,273,15.0,15.0,68,0.00,CLR,,0.00,WeatherDisplay:10.37,2013-02-20 17:00:00,
2013-02-20 12:05:00,19.9,11.0,30.12,NW,314,16.1,16.1,68,0.00,CLR,,0.00,WeatherDisplay:10.37,2013-02-20 17:05:00,
2013-02-20 12:10:00,19.8,10.6,30.12,West,275,25.0,25.0,67,0.00,CLR,,0.00,WeatherDisplay:10.37,2013-02-20 17:10:00,
2013-02-20 12:15:00,19.7,10.2,30.13,WNW,284,17.3,17.3,66,0.00,CLR,,0.00,WeatherDisplay:10.37,2013-02-20 17:15:00,
2013-02-20 12:20:00,19.7,9.8,30.13,WSW,258,18.4,18.4,65,0.00,CLR,,0.00,WeatherDisplay:10.37,2013-02-20 17:20:00,
2013-02-20 12:25:00,19.7,9.8,30.13,West,271,24.2,24.2,65,0.00,CLR,,0.00,WeatherDisplay:10.37,2013-02-20 17:25:00,
2013-02-20 12:30:00,19.7,8.8,30.13,WSW,241,29.0,29.0,62,0.00,CLR,,0.00,WeatherDisplay:10.37,2013-02-20 17:30:00,
2013-02-20 12:35:00,19.9,9.0,30.13,West,269,25.0,25.0,62,0.00,CLR,,0.00,WeatherDisplay:10.37,2013-02-20 17:35:00,
2013-02-20 12:40:00,20.3,9.3,30.13,WSW,257,20.0,20.0,62,0.00,CLR,,0.00,WeatherDisplay:10.37,2013-02-20 17:40:00,
2013-02-20 12:45:00,20.0,8.7,30.13,West,279,20.0,20.0,61,0.00,CLR,,0.00,WeatherDisplay:10.37,2013-02-20 17:45:00,
2013-02-20 12:50:00,19.8,8.1,30.13,West,271,21.0,21.0,60,0.00,CLR,,0.00,WeatherDisplay:10.37,2013-02-20 17:50:00,
2013-02-20 12:55:00,19.7,8.0,30.13,West,276,14.0,14.0,60,0.00,CLR,,0.00,WeatherDisplay:10.37,2013-02-20 17:55:00,
2013-02-20 13:00:00,19.8,7.8,30.13,WSW,239,21.0,21.0,59,0.00,CLR,,0.00,WeatherDisplay:10.37,2013-02-20 18:00:00,
2013-02-20 13:05:00,19.9,8.2,30.13,West,277,24.0,24.0,60,0.00,CLR,,0.00,WeatherDisplay:10.37,2013-02-20 18:05:00,
2013-02-20 13:10:00,20.4,8.7,30.13,West,263,23.0,23.0,60,0.00,CLR,,0.00,WeatherDisplay:10.37,2013-02-20 18:10:00,
2013-02-20 13:15:00,20.4,8.0,30.13,SW,233,26.5,26.5,58,0.00,CLR,,0.00,WeatherDisplay:10.37,2013-02-20 18:15:00,
2013-02-20 13:20:00,20.3,8.6,30.13,West,271,21.9,21.9,60,0.00,CLR,,0.00,WeatherDisplay:10.37,2013-02-20 18:20:00,
2013-02-20 13:25:00,20.3,8.6,30.13,West,259,21.9,21.9,60,0.00,CLR,,0.00,WeatherDisplay:10.37,2013-02-20 18:25:00,
2013-02-20 13:30:00,20.4,9.1,30.13,West,272,20.7,20.7,61,0.00,CLR,,0.00,WeatherDisplay:10.37,2013-02-20 18:30:00,
2013-02-20 13:35:00,20.5,8.4,30.13,West,267,25.3,25.3,59,0.00,CLR,,0.00,WeatherDisplay:10.37,2013-02-20 18:35:00,
2013-02-20 13:40:00,20.2,7.8,30.13,WNW,300,17.3,17.3,58,0.00,CLR,,0.00,WeatherDisplay:10.37,2013-02-20 18:40:00,
2013-02-20 13:45:00,20.3,8.2,30.14,WNW,298,7.0,7.0,59,0.00,CLR,,0.00,WeatherDisplay:10.37,2013-02-20 18:45:00,
2013-02-20 13:51:00,20.5,8.8,30.14,West,262,22.0,22.0,60,0.00,CLR,,0.00,WeatherDisplay:10.37,2013-02-20 18:51:00,
2013-02-20 13:56:00,20.4,8.7,30.14,WSW,257,17.3,17.3,60,0.00,CLR,,0.00,WeatherDisplay:10.37,2013-02-20 18:56:00,
2013-02-20 14:01:00,20.4,9.1,30.14,West,261,18.4,18.4,61,0.00,CLR,,0.00,WeatherDisplay:10.37,2013-02-20 19:01:00,
2013-02-20 14:06:00,20.5,9.2,30.14,West,265,19.0,19.0,61,0.00,CLR,,0.00,WeatherDisplay:10.37,2013-02-20 19:06:00,
2013-02-20 14:11:00,20.5,8.4,30.14,NNW,337,8.0,8.0,59,0.00,CLR,,0.00,WeatherDisplay:10.37,2013-02-20 19:11:00,
2013-02-20 14:16:00,20.6,8.5,30.14,WNW,299,10.4,10.4,59,0.00,CLR,,0.00,WeatherDisplay:10.37,2013-02-20 19:16:00,
2013-02-20 14:21:00,20.6,9.6,30.15,WNW,286,21.0,21.0,62,0.00,CLR,,0.00,WeatherDisplay:10.37,2013-02-20 19:21:00,
2013-02-20 14:26:00,20.9,9.9,30.14,WSW,245,16.1,16.1,62,0.00,CLR,,0.00,WeatherDisplay:10.37,2013-02-20 19:26:00,
2013-02-20 14:31:00,21.0,10.7,30.15,WSW,256,22.0,22.0,64,0.00,CLR,,0.00,WeatherDisplay:10.37,2013-02-20 19:31:00,
2013-02-20 14:36:00,20.7,10.8,30.15,WSW,238,20.0,20.0,65,0.00,CLR,,0.00,WeatherDisplay:10.37,2013-02-20 19:36:00,
2013-02-20 14:41:00,20.5,10.6,30.15,West,275,22.0,22.0,65,0.00,CLR,,0.00,WeatherDisplay:10.37,2013-02-20 19:41:00,
2013-02-20 14:46:00,20.4,10.5,30.15,WSW,240,21.9,21.9,65,0.00,CLR,,0.00,WeatherDisplay:10.37,2013-02-20 19:46:00,
2013-02-20 14:51:00,20.4,10.5,30.15,West,272,23.0,23.0,65,0.00,CLR,,0.00,WeatherDisplay:10.37,2013-02-20 19:51:00,
2013-02-20 14:56:00,20.2,10.0,30.16,WSW,254,14.0,14.0,64,0.00,CLR,,0.00,WeatherDisplay:10.37,2013-02-20 19:56:00,
2013-02-20 15:01:00,20.5,10.6,30.16,West,263,17.3,17.3,65,0.00,CLR,,0.00,WeatherDisplay:10.37,2013-02-20 20:01:00,
2013-02-20 15:06:00,20.4,10.1,30.16,NW,306,5.0,5.0,64,0.00,CLR,,0.00,WeatherDisplay:10.37,2013-02-20 20:06:00,
2013-02-20 15:11:00,20.2,10.3,30.17,WNW,294,8.0,8.0,65,0.00,CLR,,0.00,WeatherDisplay:10.37,2013-02-20 20:11:00,
2013-02-20 15:16:00,20.3,10.1,30.17,WSW,252,13.8,13.8,64,0.00,CLR,,0.00,WeatherDisplay:10.37,2013-02-20 20:16:00,
2013-02-20 15:21:00,20.6,10.0,30.17,WNW,288,19.6,19.6,63,0.00,CLR,,0.00,WeatherDisplay:10.37,2013-02-20 20:21:00,
2013-02-20 15:26:00,20.4,9.1,30.17,WNW,289,9.2,9.2,61,0.00,CLR,,0.00,WeatherDisplay:10.37,2013-02-20 20:26:00,
2013-02-20 15:31:00,20.6,10.3,30.17,West,263,21.0,21.0,64,0.00,CLR,,0.00,WeatherDisplay:10.37,2013-02-20 20:31:00,
2013-02-20 15:36:00,20.6,10.3,30.17,WSW,249,18.4,18.4,64,0.00,CLR,,0.00,WeatherDisplay:10.37,2013-02-20 20:36:00,
2013-02-20 15:41:00,20.8,10.5,30.17,WSW,247,19.6,19.6,64,0.00,CLR,,0.00,WeatherDisplay:10.37,2013-02-20 20:41:00,
2013-02-20 15:46:00,20.6,10.0,30.17,West,264,18.0,18.0,63,0.00,CLR,,0.00,WeatherDisplay:10.37,2013-02-20 20:46:00,
2013-02-20 15:51:00,20.6,10.0,30.18,WSW,256,22.0,22.0,63,0.00,CLR,,0.00,WeatherDisplay:10.37,2013-02-20 20:51:00,
2013-02-20 15:56:00,20.7,10.4,30.18,NW,309,15.0,15.0,64,0.00,CLR,,0.00,WeatherDisplay:10.37,2013-02-20 20:56:00,
2013-02-20 16:01:00,20.8,10.5,30.18,WSW,251,17.3,17.3,64,0.00,CLR,,0.00,WeatherDisplay:10.37,2013-02-20 21:01:00,
2013-02-20 16:06:00,20.7,10.8,30.19,WSW,254,20.7,20.7,65,0.00,CLR,,0.00,WeatherDisplay:10.37,2013-02-20 21:06:00,
2013-02-20 16:11:00,20.7,10.8,30.19,West,267,21.0,21.0,65,0.00,CLR,,0.00,WeatherDisplay:10.37,2013-02-20 21:11:00,
2013-02-20 16:16:00,20.6,10.3,30.19,WNW,295,18.4,18.4,64,0.00,CLR,,0.00,WeatherDisplay:10.37,2013-02-20 21:16:00,
2013-02-20 16:21:00,20.4,10.1,30.19,WNW,284,20.0,20.0,64,0.00,CLR,,0.00,WeatherDisplay:10.37,2013-02-20 21:21:00,
2013-02-20 16:26:00,20.5,10.6,30.19,West,265,18.4,18.4,65,0.00,CLR,,0.00,WeatherDisplay:10.37,2013-02-20 21:26:00,
2013-02-20 16:31:00,20.5,10.6,30.20,West,263,20.0,20.0,65,0.00,CLR,,0.00,WeatherDisplay:10.37,2013-02-20 21:31:00,
2013-02-20 16:36:00,20.4,10.5,30.20,WNW,297,16.1,16.1,65,0.00,CLR,,0.00,WeatherDisplay:10.37,2013-02-20 21:36:00,
2013-02-20 16:41:00,20.5,10.9,30.20,WSW,253,19.6,19.6,66,0.00,CLR,,0.00,WeatherDisplay:10.37,2013-02-20 21:41:00,
2013-02-20 16:46:00,20.3,10.4,30.20,West,279,14.0,14.0,65,0.00,CLR,,0.00,WeatherDisplay:10.37,2013-02-20 21:46:00,
2013-02-20 16:51:00,20.3,10.1,30.20,WNW,292,19.6,19.6,64,0.00,CLR,,0.00,WeatherDisplay:10.37,2013-02-20 21:51:00,
2013-02-20 16:56:00,20.3,10.1,30.21,West,271,23.0,23.0,64,0.00,CLR,,0.00,WeatherDisplay:10.37,2013-02-20 21:56:00,
2013-02-20 17:01:00,20.3,10.1,30.21,WSW,244,10.4,10.4,64,0.00,CLR,,0.00,WeatherDisplay:10.37,2013-02-20 22:01:00,
2013-02-20 17:06:00,20.3,10.1,30.21,West,267,14.0,14.0,64,0.00,CLR,,0.00,WeatherDisplay:10.37,2013-02-20 22:06:00,
2013-02-20 17:11:00,20.3,10.4,30.21,WSW,244,19.0,19.0,65,0.00,CLR,,0.00,WeatherDisplay:10.37,2013-02-20 22:11:00,
2013-02-20 17:16:00,20.3,10.7,30.21,West,264,16.0,16.0,66,0.00,CLR,,0.00,WeatherDisplay:10.37,2013-02-20 22:16:00,
2013-02-20 17:21:00,20.3,11.1,30.22,West,261,8.1,8.1,67,0.00,CLR,,0.00,WeatherDisplay:10.37,2013-02-20 22:21:00,
2013-02-20 17:26:00,20.1,10.9,30.21,West,261,14.0,14.0,67,0.00,CLR,,0.00,WeatherDisplay:10.37,2013-02-20 22:26:00,
2013-02-20 17:31:00,19.9,10.4,30.21,West,260,11.5,11.5,66,0.00,CLR,,0.00,WeatherDisplay:10.37,2013-02-20 22:31:00,
2013-02-20 17:36:00,19.8,10.6,30.22,West,259,17.3,17.3,67,0.00,CLR,,0.00,WeatherDisplay:10.37,2013-02-20 22:36:00,
2013-02-20 17:41:00,19.7,10.2,30.22,WNW,294,10.4,10.4,66,0.00,CLR,,0.00,WeatherDisplay:10.37,2013-02-20 22:41:00,
2013-02-20 17:46:00,19.7,10.5,30.22,West,281,15.0,15.0,67,0.00,CLR,,0.00,WeatherDisplay:10.37,2013-02-20 22:46:00,
2013-02-20 17:51:00,19.7,10.2,30.22,West,265,14.0,14.0,66,0.00,CLR,,0.00,WeatherDisplay:10.37,2013-02-20 22:51:00,
2013-02-20 17:56:00,19.7,10.5,30.22,West,277,13.0,13.0,67,0.00,CLR,,0.00,WeatherDisplay:10.37,2013-02-20 22:56:00,
2013-02-20 18:01:00,19.7,10.5,30.22,WSW,257,14.0,14.0,67,0.00,CLR,,0.00,WeatherDisplay:10.37,2013-02-20 23:01:00,
2013-02-20 18:06:00,19.7,10.8,30.23,West,261,12.0,12.0,68,0.00,CLR,,0.00,WeatherDisplay:10.37,2013-02-20 23:06:00,
2013-02-20 18:11:00,19.7,10.8,30.22,WSW,256,15.0,15.0,68,0.00,CLR,,0.00,WeatherDisplay:10.37,2013-02-20 23:11:00,
2013-02-20 18:16:00,19.7,10.8,30.23,West,261,15.0,15.0,68,0.00,CLR,,0.00,WeatherDisplay:10.37,2013-02-20 23:16:00,
2013-02-20 18:21:00,19.7,11.2,30.23,WNW,294,10.4,10.4,69,0.00,CLR,,0.00,WeatherDisplay:10.37,2013-02-20 23:21:00,
2013-02-20 18:26:00,19.7,11.2,30.23,WSW,253,15.0,15.0,69,0.00,CLR,,0.00,WeatherDisplay:10.37,2013-02-20 23:26:00,
2013-02-20 18:31:00,19.7,11.5,30.23,WNW,288,11.5,11.5,70,0.00,CLR,,0.00,WeatherDisplay:10.37,2013-02-20 23:31:00,
2013-02-20 18:36:00,19.6,11.4,30.24,WSW,240,14.0,14.0,70,0.00,CLR,,0.00,WeatherDisplay:10.37,2013-02-20 23:36:00,
2013-02-20 18:41:00,19.6,11.4,30.24,West,263,14.0,14.0,70,0.00,CLR,,0.00,WeatherDisplay:10.37,2013-02-20 23:41:00,
2013-02-20 18:46:00,19.7,11.5,30.24,West,273,8.1,8.1,70,0.00,CLR,,0.00,WeatherDisplay:10.37,2013-02-20 23:46:00,
2013-02-20 18:51:00,19.7,11.5,30.24,WSW,256,16.1,16.1,70,0.00,CLR,,0.00,WeatherDisplay:10.37,2013-02-20 23:51:00,
2013-02-20 18:56:00,19.7,11.5,30.23,West,268,14.0,14.0,70,0.00,CLR,,0.00,WeatherDisplay:10.37,2013-02-20 23:56:00,
2013-02-20 19:01:00,19.7,11.5,30.23,West,265,11.5,11.5,70,0.00,CLR,,0.00,WeatherDisplay:10.37,2013-02-21 00:01:00,
2013-02-20 19:06:00,19.7,11.5,30.24,West,263,15.0,15.0,70,0.00,CLR,,0.00,WeatherDisplay:10.37,2013-02-21 00:06:00,
2013-02-20 19:11:00,19.6,11.7,30.24,West,260,12.7,12.7,71,0.00,CLR,,0.00,WeatherDisplay:10.37,2013-02-21 00:11:00,
2013-02-20 19:16:00,19.7,11.8,30.24,WSW,248,10.0,10.0,71,0.00,CLR,,0.00,WeatherDisplay:10.37,2013-02-21 00:16:00,
2013-02-20 19:21:00,19.6,12.0,30.24,WNW,299,11.5,11.5,72,0.00,CLR,,0.00,WeatherDisplay:10.37,2013-02-21 00:21:00,
2013-02-20 19:26:00,19.5,11.9,30.23,West,260,14.0,14.0,72,0.00,CLR,,0.00,WeatherDisplay:10.37,2013-02-21 00:26:00,
2013-02-20 19:31:00,19.5,11.9,30.23,WSW,256,16.0,16.0,72,0.00,CLR,,0.00,WeatherDisplay:10.37,2013-02-21 00:31:00,
2013-02-20 19:36:00,19.4,11.5,30.23,WSW,239,18.4,18.4,71,0.00,CLR,,0.00,WeatherDisplay:10.37,2013-02-21 00:36:00,
2013-02-20 19:41:00,19.4,11.5,30.23,West,263,10.4,10.4,71,0.00,CLR,,0.00,WeatherDisplay:10.37,2013-02-21 00:41:00,
2013-02-20 19:46:00,19.4,11.5,30.23,West,263,12.0,12.0,71,0.00,CLR,,0.00,WeatherDisplay:10.37,2013-02-21 00:46:00,
2013-02-20 19:51:00,19.5,11.9,30.23,West,259,12.0,12.0,72,0.00,CLR,,0.00,WeatherDisplay:10.37,2013-02-21 00:51:00,
2013-02-20 19:56:00,19.5,11.9,30.23,WSW,254,11.0,11.0,72,0.00,CLR,,0.00,WeatherDisplay:10.37,2013-02-21 00:56:00,
2013-02-20 20:01:00,19.4,11.8,30.24,WSW,256,11.0,11.0,72,0.00,CLR,,0.00,WeatherDisplay:10.37,2013-02-21 01:01:00,
2013-02-20 20:06:00,19.5,11.9,30.24,West,271,9.2,9.2,72,0.00,CLR,,0.00,WeatherDisplay:10.37,2013-02-21 01:06:00,
2013-02-20 20:11:00,19.5,11.6,30.24,West,260,13.0,13.0,71,0.00,CLR,,0.00,WeatherDisplay:10.37,2013-02-21 01:11:00,
2013-02-20 20:16:00,19.5,11.6,30.24,West,280,14.0,14.0,71,0.00,CLR,,0.00,WeatherDisplay:10.37,2013-02-21 01:16:00,
2013-02-20 20:21:00,19.5,11.3,30.24,West,264,13.0,13.0,70,0.00,CLR,,0.00,WeatherDisplay:10.37,2013-02-21 01:21:00,
2013-02-20 20:26:00,19.6,11.4,30.24,WSW,252,13.0,13.0,70,0.00,CLR,,0.00,WeatherDisplay:10.37,2013-02-21 01:26:00,
2013-02-20 20:31:00,19.6,11.4,30.24,West,266,13.8,13.8,70,0.00,CLR,,0.00,WeatherDisplay:10.37,2013-02-21 01:31:00,
2013-02-20 20:36:00,19.7,11.5,30.24,West,261,11.5,11.5,70,0.00,CLR,,0.00,WeatherDisplay:10.37,2013-02-21 01:36:00,
2013-02-20 20:41:00,19.7,11.2,30.24,WSW,253,11.5,11.5,69,0.00,CLR,,0.00,WeatherDisplay:10.37,2013-02-21 01:41:00,
2013-02-20 20:46:00,19.7,11.2,30.24,WSW,246,13.0,13.0,69,0.00,CLR,,0.00,WeatherDisplay:10.37,2013-02-21 01:46:00,
2013-02-20 20:51:00,19.7,11.2,30.24,West,263,13.0,13.0,69,0.00,CLR,,0.00,WeatherDisplay:10.37,2013-02-21 01:51:00,
2013-02-20 20:56:00,19.7,11.2,30.24,West,263,13.0,13.0,69,0.00,CLR,,0.00,WeatherDisplay:10.37,2013-02-21 01:56:00,
2013-02-20 21:01:00,19.7,11.2,30.24,West,263,13.8,13.8,69,0.00,CLR,,0.00,WeatherDisplay:10.37,2013-02-21 02:01:00,
2013-02-20 21:06:00,19.7,11.2,30.24,WSW,256,11.5,11.5,69,0.00,CLR,,0.00,WeatherDisplay:10.37,2013-02-21 02:06:00,
2013-02-20 21:11:00,19.7,11.2,30.24,West,274,12.0,12.0,69,0.00,CLR,,0.00,WeatherDisplay:10.37,2013-02-21 02:11:00,
2013-02-20 21:16:00,19.7,10.8,30.24,WNW,302,12.0,12.0,68,0.00,CLR,,0.00,WeatherDisplay:10.37,2013-02-21 02:16:00,
2013-02-20 21:21:00,19.7,11.2,30.24,West,261,14.0,14.0,69,0.00,CLR,,0.00,WeatherDisplay:10.37,2013-02-21 02:21:00,
2013-02-20 21:26:00,19.7,11.2,30.25,West,265,9.2,9.2,69,0.00,CLR,,0.00,WeatherDisplay:10.37,2013-02-21 02:26:00,
2013-02-20 21:31:00,19.7,11.2,30.25,West,271,16.1,16.1,69,0.00,CLR,,0.00,WeatherDisplay:10.37,2013-02-21 02:31:00,
2013-02-20 21:36:00,19.7,11.2,30.25,WSW,254,11.5,11.5,69,0.00,CLR,,0.00,WeatherDisplay:10.37,2013-02-21 02:36:00,
2013-02-20 21:41:00,19.7,11.2,30.25,West,268,11.5,11.5,69,0.00,CLR,,0.00,WeatherDisplay:10.37,2013-02-21 02:41:00,
2013-02-20 21:46:00,19.7,11.2,30.25,WSW,257,15.0,15.0,69,0.00,CLR,,0.00,WeatherDisplay:10.37,2013-02-21 02:46:00,
2013-02-20 21:51:00,19.7,11.2,30.25,WSW,258,8.1,8.1,69,0.00,CLR,,0.00,WeatherDisplay:10.37,2013-02-21 02:51:00,
2013-02-20 21:56:00,19.7,11.2,30.25,WSW,255,10.0,10.0,69,0.00,CLR,,0.00,WeatherDisplay:10.37,2013-02-21 02:56:00,
2013-02-20 22:01:00,19.7,11.2,30.25,WSW,240,10.4,10.4,69,0.00,CLR,,0.00,WeatherDisplay:10.37,2013-02-21 03:01:00,
2013-02-20 22:06:00,19.7,11.2,30.25,West,263,15.0,15.0,69,0.00,CLR,,0.00,WeatherDisplay:10.37,2013-02-21 03:06:00,
2013-02-20 22:11:00,19.7,11.5,30.25,WSW,253,13.0,13.0,70,0.00,CLR,,0.00,WeatherDisplay:10.37,2013-02-21 03:11:00,
2013-02-20 22:16:00,19.7,11.8,30.25,West,260,15.0,15.0,71,0.00,CLR,,0.00,WeatherDisplay:10.37,2013-02-21 03:16:00,
2013-02-20 22:21:00,19.6,11.7,30.25,WSW,257,12.0,12.0,71,0.00,CLR,,0.00,WeatherDisplay:10.37,2013-02-21 03:21:00,
2013-02-20 22:26:00,19.4,11.8,30.25,West,261,17.0,17.0,72,0.00,CLR,,0.00,WeatherDisplay:10.37,2013-02-21 03:26:00,
2013-02-20 22:31:00,19.3,11.7,30.25,WSW,249,13.0,13.0,72,0.00,CLR,,0.00,WeatherDisplay:10.37,2013-02-21 03:31:00,
2013-02-20 22:36:00,19.3,11.7,30.25,WSW,245,9.2,9.2,72,0.00,CLR,,0.00,WeatherDisplay:10.37,2013-02-21 03:36:00,
2013-02-20 22:41:00,19.2,12.0,30.25,WSW,244,15.0,15.0,73,0.00,CLR,,0.00,WeatherDisplay:10.37,2013-02-21 03:41:00,
2013-02-20 22:46:00,19.3,11.7,30.25,West,260,19.6,19.6,72,0.00,CLR,,0.00,WeatherDisplay:10.37,2013-02-21 03:46:00,
2013-02-20 22:51:00,19.4,14.5,30.25,WSW,254,11.0,11.0,81,0.00,CLR,,0.00,WeatherDisplay:10.37,2013-02-21 03:51:00,
2013-02-20 22:56:00,19.4,12.2,30.24,West,267,11.5,11.5,73,0.00,CLR,,0.00,WeatherDisplay:10.37,2013-02-21 03:56:00,
2013-02-20 23:01:00,19.4,12.2,30.24,WSW,256,9.2,9.2,73,0.00,CLR,,0.00,WeatherDisplay:10.37,2013-02-21 04:01:00,
2013-02-20 23:06:00,19.4,12.2,30.24,West,261,14.0,14.0,73,0.00,CLR,,0.00,WeatherDisplay:10.37,2013-02-21 04:06:00,
2013-02-20 23:11:00,19.3,12.4,30.24,West,265,10.4,10.4,74,0.00,CLR,,0.00,WeatherDisplay:10.37,2013-02-21 04:11:00,
2013-02-20 23:16:00,19.2,12.3,30.24,West,260,13.0,13.0,74,0.00,CLR,,0.00,WeatherDisplay:10.37,2013-02-21 04:16:00,
2013-02-20 23:21:00,19.2,12.3,30.24,West,267,11.5,11.5,74,0.00,CLR,,0.00,WeatherDisplay:10.37,2013-02-21 04:21:00,
2013-02-20 23:26:00,19.3,12.4,30.23,WSW,252,8.1,8.1,74,0.00,CLR,,0.00,WeatherDisplay:10.37,2013-02-21 04:26:00,
2013-02-20 23:31:00,19.2,12.3,30.24,West,267,10.4,10.4,74,0.00,CLR,,0.00,WeatherDisplay:10.37,2013-02-21 04:31:00,
2013-02-20 23:36:00,19.2,12.3,30.23,West,273,7.0,7.0,74,0.00,CLR,,0.00,WeatherDisplay:10.37,2013-02-21 04:36:00,
2013-02-20 23:41:00,19.1,12.2,30.23,West,263,8.0,8.0,74,0.00,CLR,,0.00,WeatherDisplay:10.37,2013-02-21 04:41:00,
2013-02-20 23:46:00,19.1,12.5,30.23,WSW,257,8.1,8.1,75,0.00,CLR,,0.00,WeatherDisplay:10.37,2013-02-21 04:46:00,
2013-02-20 23:51:00,19.2,12.6,30.23,West,269,8.1,8.1,75,0.00,CLR,,0.00,WeatherDisplay:10.37,2013-02-21 04:51:00,
2013-02-20 23:56:00,19.2,12.6,30.23,West,269,10.4,10.4,75,0.00,CLR,,0.00,WeatherDisplay:10.37,2013-02-21 04:56:00,